Time;durP1;ratioP1;P1;durP2;ratioP2;P2;SDS_P1;SDS_P2;PMS_P1;PMS_P2;Temp;Humidity;BMP_temperature;BMP_pressure;BME280_temperature;BME280_humidity;BME280_pressure;Samples;Min_cycle;Max_cycle;Signal;HPM_P1;HPM_P2
2022/04/06 00:00:31;;;;;;;;;4.00;4.00;;;;;;;;5122308;27;45436;-75
2022/04/06 00:02:57;;;;;;;;;8.67;7.33;;;;;;;;5123672;27;45454;-75
2022/04/06 00:05:22;;;;;;;;;5.33;4.33;;;;;;;;5123268;27;45296;-75
2022/04/06 00:07:47;;;;;;;;;6.00;4.67;;;;;;;;5123266;27;46130;-75
2022/04/06 00:10:13;;;;;;;;;5.00;4.00;;;;;;;;5123432;27;45269;-75
2022/04/06 00:12:39;;;;;;;;;5.67;4.00;;;;;;;;5123573;27;45485;-75
2022/04/06 00:15:05;;;;;;;;;6.67;5.67;;;;;;;;5118761;27;45500;-75
2022/04/06 00:17:31;;;;;;;;;5.00;5.00;;;;;;;;5102498;27;45717;-74
2022/04/06 00:19:56;;;;;;;;;5.33;5.33;;;;;;;;5100774;27;45486;-75
2022/04/06 00:22:22;;;;;;;;;6.00;5.00;;;;;;;;5101303;27;45216;-75
2022/04/06 00:24:47;;;;;;;;;4.00;4.00;;;;;;;;5102586;27;45202;-75
2022/04/06 00:27:13;;;;;;;;;4.33;3.00;;;;;;;;5102430;27;45259;-75
2022/04/06 00:29:38;;;;;;;;;5.00;3.67;;;;;;;;5102450;27;45246;-75
2022/04/06 00:32:03;;;;;;;;;4.67;4.00;;;;;;;;5100803;27;45507;-74
2022/04/06 00:37:12;;;;;;;;;6.50;4.00;;;;;;;;5101993;27;45348;-75
2022/04/06 00:39:38;;;;;;;;;3.67;3.33;;;;;;;;5101009;27;45851;-74
2022/04/06 00:42:04;;;;;;;;;3.00;3.00;;;;;;;;5102338;27;45288;-75
2022/04/06 00:44:29;;;;;;;;;3.00;2.67;;;;;;;;5102142;27;46047;-76
2022/04/06 00:46:54;;;;;;;;;3.00;3.00;;;;;;;;5101979;27;45686;-75
2022/04/06 00:49:20;;;;;;;;;6.00;5.00;;;;;;;;5101967;27;45569;-75
2022/04/06 00:51:46;;;;;;;;;4.33;4.00;;;;;;;;5100806;27;45283;-74
2022/04/06 00:54:16;;;;;;;;;4.00;3.00;;;;;;;;5102131;27;45376;-75
2022/04/06 00:56:42;;;;;;;;;2.00;2.00;;;;;;;;5101855;27;46536;-74
2022/04/06 00:59:07;;;;;;;;;5.33;2.00;;;;;;;;5101887;27;45263;-74
2022/04/06 01:01:33;;;;;;;;;5.00;3.00;;;;;;;;5102047;27;45180;-75
2022/04/06 01:03:58;;;;;;;;;3.00;3.00;;;;;;;;5101837;27;45513;-75
2022/04/06 01:06:23;;;;;;;;;4.00;2.33;;;;;;;;5099323;27;48217;-74
2022/04/06 01:08:49;;;;;;;;;1.00;1.00;;;;;;;;5101904;27;45305;-75
2022/04/06 01:11:14;;;;;;;;;2.33;2.33;;;;;;;;5101915;27;45413;-75
2022/04/06 01:13:39;;;;;;;;;2.33;2.33;;;;;;;;5100307;27;45987;-74
2022/04/06 01:16:05;;;;;;;;;4.00;2.67;;;;;;;;5114508;27;45303;-75
2022/04/06 01:18:33;;;;;;;;;3.00;1.00;;;;;;;;5120778;27;45363;-75
2022/04/06 01:20:58;;;;;;;;;2.00;2.00;;;;;;;;5122300;27;45387;-75
2022/04/06 01:23:24;;;;;;;;;3.00;2.00;;;;;;;;5121986;27;45358;-75
2022/04/06 01:25:49;;;;;;;;;3.00;3.00;;;;;;;;5122142;27;45241;-75
2022/04/06 01:28:15;;;;;;;;;3.00;2.67;;;;;;;;5122379;27;45252;-74
2022/04/06 01:30:40;;;;;;;;;3.00;3.00;;;;;;;;5121792;27;45196;-75
2022/04/06 01:33:06;;;;;;;;;2.33;2.33;;;;;;;;5121988;27;45405;-75
2022/04/06 01:35:31;;;;;;;;;2.33;1.00;;;;;;;;5120370;27;47040;-74
2022/04/06 01:37:56;;;;;;;;;1.00;1.00;;;;;;;;5120678;27;46144;-75
2022/04/06 01:40:21;;;;;;;;;4.00;2.00;;;;;;;;5122224;27;45301;-75
2022/04/06 01:42:47;;;;;;;;;3.00;2.33;;;;;;;;5121856;27;45458;-75
2022/04/06 01:45:12;;;;;;;;;3.00;2.00;;;;;;;;5120514;27;46966;-75
2022/04/06 01:47:37;;;;;;;;;2.33;2.00;;;;;;;;5121803;27;45127;-75
2022/04/06 01:52:46;;;;;;;;;1.00;1.00;;;;;;;;5121522;27;45374;-75
2022/04/06 01:55:13;;;;;;;;;3.33;3.33;;;;;;;;5120205;27;47128;-75
2022/04/06 01:57:39;;;;;;;;;3.67;3.67;;;;;;;;5121716;27;45325;-74
2022/04/06 02:00:06;;;;;;;;;3.00;3.00;;;;;;;;5120352;27;45343;-75
2022/04/06 02:02:32;;;;;;;;;3.67;3.67;;;;;;;;5121285;27;45377;-75
2022/04/06 02:04:58;;;;;;;;;3.00;3.00;;;;;;;;5121098;27;45387;-75
2022/04/06 02:07:25;;;;;;;;;2.67;2.67;;;;;;;;5121449;27;45260;-75
2022/04/06 02:09:50;;;;;;;;;1.67;1.67;;;;;;;;5120156;27;45234;-74
2022/04/06 02:12:15;;;;;;;;;2.00;2.00;;;;;;;;5121225;27;45532;-74
2022/04/06 02:14:41;;;;;;;;;3.67;2.00;;;;;;;;5119891;27;45510;-74
2022/04/06 02:17:10;;;;;;;;;2.00;2.00;;;;;;;;5100152;27;45366;-75
2022/04/06 02:19:36;;;;;;;;;2.67;2.67;;;;;;;;5098445;27;45457;-74
2022/04/06 02:22:02;;;;;;;;;2.00;1.33;;;;;;;;5097430;27;46891;-74
2022/04/06 02:24:27;;;;;;;;;2.00;2.00;;;;;;;;5100634;27;46572;-74
2022/04/06 02:26:52;;;;;;;;;2.33;2.33;;;;;;;;5100571;27;45419;-75
2022/04/06 02:29:17;;;;;;;;;3.33;2.33;;;;;;;;5099271;27;45490;-75
2022/04/06 02:31:43;;;;;;;;;3.00;3.00;;;;;;;;5099919;27;45257;-74
2022/04/06 02:34:08;;;;;;;;;3.33;3.33;;;;;;;;5098715;27;47088;-74
2022/04/06 02:36:33;;;;;;;;;2.00;2.00;;;;;;;;5098020;27;45658;-74
2022/04/06 02:39:00;;;;;;;;;3.00;3.00;;;;;;;;5099535;27;45268;-75
2022/04/06 02:41:25;;;;;;;;;2.00;2.00;;;;;;;;5100184;27;45272;-75
2022/04/06 02:43:50;;;;;;;;;3.67;3.67;;;;;;;;5099693;27;46420;-74
2022/04/06 02:46:15;;;;;;;;;3.00;3.00;;;;;;;;5100407;27;45284;-75
2022/04/06 02:48:40;;;;;;;;;3.33;2.67;;;;;;;;5100339;27;45254;-74
2022/04/06 02:51:06;;;;;;;;;2.00;2.00;;;;;;;;5099940;27;45288;-75
2022/04/06 02:53:31;;;;;;;;;2.67;2.67;;;;;;;;5100028;27;45476;-74
2022/04/06 02:55:56;;;;;;;;;3.00;3.00;;;;;;;;5100109;27;45676;-75
2022/04/06 02:58:21;;;;;;;;;3.00;2.00;;;;;;;;5100350;27;45308;-75
2022/04/06 03:00:46;;;;;;;;;2.33;2.33;;;;;;;;5098695;27;46105;-75
2022/04/06 03:03:12;;;;;;;;;1.33;1.33;;;;;;;;5100086;27;46562;-75
2022/04/06 03:05:39;;;;;;;;;2.00;2.00;;;;;;;;5099879;27;45189;-76
2022/04/06 03:08:04;;;;;;;;;4.00;4.00;;;;;;;;5099949;27;45348;-75
2022/04/06 03:10:30;;;;;;;;;1.33;1.00;;;;;;;;5099797;27;45430;-75
2022/04/06 03:12:55;;;;;;;;;3.00;3.00;;;;;;;;5098414;27;47131;-74
2022/04/06 03:15:20;;;;;;;;;2.33;2.00;;;;;;;;5106799;27;45618;-75
2022/04/06 03:17:45;;;;;;;;;2.67;2.67;;;;;;;;5120577;27;45339;-75
2022/04/06 03:20:14;;;;;;;;;2.00;2.00;;;;;;;;5118768;27;47283;-75
2022/04/06 03:22:40;;;;;;;;;3.00;3.00;;;;;;;;5120333;27;45280;-75
2022/04/06 03:25:06;;;;;;;;;3.33;3.00;;;;;;;;5120124;27;45914;-75
2022/04/06 03:27:31;;;;;;;;;2.67;2.67;;;;;;;;5120554;27;45402;-74
2022/04/06 03:29:57;;;;;;;;;2.00;2.00;;;;;;;;5123318;27;45498;-74
2022/04/06 03:32:22;;;;;;;;;3.00;3.00;;;;;;;;5123688;27;46103;-75
2022/04/06 03:34:47;;;;;;;;;6.33;4.00;;;;;;;;5123764;27;45286;-74
2022/04/06 03:37:12;;;;;;;;;2.33;2.00;;;;;;;;5122506;27;45341;-75
2022/04/06 03:39:37;;;;;;;;;3.33;2.67;;;;;;;;5123864;27;45434;-75
2022/04/06 03:42:03;;;;;;;;;4.00;3.00;;;;;;;;5123727;27;45202;-75
2022/04/06 03:44:28;;;;;;;;;3.00;3.00;;;;;;;;5122473;27;45277;-74
2022/04/06 03:46:55;;;;;;;;;2.33;2.33;;;;;;;;5122528;27;45679;-75
2022/04/06 03:49:20;;;;;;;;;3.00;3.00;;;;;;;;5123488;27;45278;-74
2022/04/06 03:51:45;;;;;;;;;2.00;2.00;;;;;;;;5122140;27;47299;-75
2022/04/06 03:54:10;;;;;;;;;3.33;1.67;;;;;;;;5122412;27;45355;-75
2022/04/06 03:56:37;;;;;;;;;1.00;1.00;;;;;;;;5123714;27;45351;-75
2022/04/06 03:59:04;;;;;;;;;2.33;2.33;;;;;;;;5123542;27;45337;-75
2022/04/06 04:01:30;;;;;;;;;2.67;2.67;;;;;;;;5121771;27;47572;-75
2022/04/06 04:03:55;;;;;;;;;1.00;1.00;;;;;;;;5123234;27;45214;-75
2022/04/06 04:06:20;;;;;;;;;4.00;4.00;;;;;;;;5123609;27;45209;-74
2022/04/06 04:08:45;;;;;;;;;3.00;3.00;;;;;;;;5121986;27;47030;-75
2022/04/06 04:11:11;;;;;;;;;3.67;3.00;;;;;;;;5123193;27;45335;-75
2022/04/06 04:13:36;;;;;;;;;2.00;2.00;;;;;;;;5122022;27;45127;-74
2022/04/06 04:16:01;;;;;;;;;3.00;3.00;;;;;;;;5109248;27;45326;-74
2022/04/06 04:18:26;;;;;;;;;3.00;3.00;;;;;;;;5102632;27;45459;-74
2022/04/06 04:21:31;;;;;;;;;3.00;3.00;;;;;;;;5102186;27;45360;-74
2022/04/06 04:23:37;;;;;;;;;2.00;2.00;;;;;;;;5102378;27;45189;-74
2022/04/06 04:26:02;;;;;;;;;2.00;1.67;;;;;;;;5102470;27;45587;-75
2022/04/06 04:28:27;;;;;;;;;3.00;2.00;;;;;;;;5100977;27;46525;-75
2022/04/06 04:30:52;;;;;;;;;3.00;3.00;;;;;;;;5100599;27;47348;-74
2022/04/06 04:33:18;;;;;;;;;1.00;1.00;;;;;;;;5102538;27;45210;-74
2022/04/06 04:35:43;;;;;;;;;2.00;2.00;;;;;;;;5102341;27;45654;-74
2022/04/06 04:38:08;;;;;;;;;2.00;2.00;;;;;;;;5102227;27;45469;-74
2022/04/06 04:40:33;;;;;;;;;3.00;3.00;;;;;;;;5099830;27;46847;-74
2022/04/06 04:42:59;;;;;;;;;3.00;3.00;;;;;;;;5102208;27;45325;-75
2022/04/06 04:45:24;;;;;;;;;2.00;2.00;;;;;;;;5102559;27;45329;-74
2022/04/06 04:47:49;;;;;;;;;1.67;1.67;;;;;;;;5102146;27;45436;-75
2022/04/06 04:50:15;;;;;;;;;2.33;2.33;;;;;;;;5100404;27;47063;-75
2022/04/06 04:52:41;;;;;;;;;3.00;3.00;;;;;;;;5102013;27;45297;-75
2022/04/06 04:55:06;;;;;;;;;1.67;1.67;;;;;;;;5102100;27;45386;-74
2022/04/06 04:57:31;;;;;;;;;4.00;3.00;;;;;;;;5101659;27;45328;-75
2022/04/06 04:59:56;;;;;;;;;3.33;3.33;;;;;;;;5101929;27;45540;-75
2022/04/06 05:02:22;;;;;;;;;1.67;1.67;;;;;;;;5100534;27;45447;-75
2022/04/06 05:04:47;;;;;;;;;5.00;3.00;;;;;;;;5101947;27;45257;-75
2022/04/06 05:07:12;;;;;;;;;2.00;2.00;;;;;;;;5097287;27;46287;-74
2022/04/06 05:09:37;;;;;;;;;2.00;2.00;;;;;;;;5079798;28;47734;-74
2022/04/06 05:12:03;;;;;;;;;2.00;2.00;;;;;;;;5081415;27;45357;-75
2022/04/06 05:14:28;;;;;;;;;2.00;2.00;;;;;;;;5088863;27;45491;-76
2022/04/06 05:16:53;;;;;;;;;2.00;2.00;;;;;;;;5122882;27;45292;-77
2022/04/06 05:19:18;;;;;;;;;2.33;2.33;;;;;;;;5122456;27;46252;-77
2022/04/06 05:21:43;;;;;;;;;2.00;2.00;;;;;;;;5121683;27;45298;-77
2022/04/06 05:24:09;;;;;;;;;2.67;2.67;;;;;;;;5124753;27;45256;-77
2022/04/06 05:26:34;;;;;;;;;2.00;2.00;;;;;;;;5122352;27;45925;-78
2022/04/06 05:28:59;;;;;;;;;1.00;1.00;;;;;;;;5120668;27;47390;-78
2022/04/06 05:31:24;;;;;;;;;2.00;2.00;;;;;;;;5133722;27;45221;-77
2022/04/06 05:33:49;;;;;;;;;1.67;1.67;;;;;;;;5122787;27;45240;-76
2022/04/06 05:36:15;;;;;;;;;4.00;3.00;;;;;;;;5086207;27;47163;-75
2022/04/06 05:38:40;;;;;;;;;3.33;2.00;;;;;;;;5100350;27;45411;-75
2022/04/06 05:41:07;;;;;;;;;3.00;3.00;;;;;;;;5085790;27;46107;-76
2022/04/06 05:43:32;;;;;;;;;3.00;3.00;;;;;;;;5095715;27;45344;-77
2022/04/06 05:45:57;;;;;;;;;4.00;3.00;;;;;;;;5101224;27;45587;-75
2022/04/06 05:48:22;;;;;;;;;3.00;3.00;;;;;;;;5101358;27;45570;-76
2022/04/06 05:50:48;;;;;;;;;2.00;2.00;;;;;;;;5099113;27;46074;-76
2022/04/06 05:53:13;;;;;;;;;4.33;3.00;;;;;;;;5099911;27;45372;-76
2022/04/06 05:55:39;;;;;;;;;5.00;3.00;;;;;;;;5101340;27;45388;-76
2022/04/06 05:58:04;;;;;;;;;3.33;3.33;;;;;;;;5101167;27;45341;-76
2022/04/06 06:00:29;;;;;;;;;5.00;5.00;;;;;;;;5101755;27;45277;-75
2022/04/06 06:02:54;;;;;;;;;5.33;4.67;;;;;;;;5101137;27;45327;-76
2022/04/06 06:05:20;;;;;;;;;5.00;3.67;;;;;;;;5100774;27;45377;-74
2022/04/06 06:07:45;;;;;;;;;5.00;4.33;;;;;;;;5099240;27;46939;-75
2022/04/06 06:10:12;;;;;;;;;4.00;4.00;;;;;;;;5088962;27;45426;-75
2022/04/06 06:12:37;;;;;;;;;5.00;5.00;;;;;;;;5090718;27;45306;-75
2022/04/06 06:15:03;;;;;;;;;4.00;4.00;;;;;;;;5099546;27;45423;-75
2022/04/06 06:17:28;;;;;;;;;3.67;3.67;;;;;;;;5079821;27;45267;-75
2022/04/06 06:19:54;;;;;;;;;6.33;4.00;;;;;;;;5078612;27;45955;-75
2022/04/06 06:22:19;;;;;;;;;6.67;6.33;;;;;;;;5080802;27;45316;-74
2022/04/06 06:24:44;;;;;;;;;6.33;6.00;;;;;;;;5078536;28;46356;-75
2022/04/06 06:27:09;;;;;;;;;6.33;5.67;;;;;;;;5080122;27;46155;-75
2022/04/06 06:29:35;;;;;;;;;6.33;5.67;;;;;;;;5079853;27;45278;-75
2022/04/06 06:32:00;;;;;;;;;6.00;4.67;;;;;;;;5093555;27;45436;-75
2022/04/06 06:34:25;;;;;;;;;6.33;6.33;;;;;;;;5098846;27;47247;-74
2022/04/06 06:36:50;;;;;;;;;5.00;5.00;;;;;;;;5098945;27;48384;-75
2022/04/06 06:39:16;;;;;;;;;3.67;3.67;;;;;;;;5089341;27;45375;-75
2022/04/06 06:41:42;;;;;;;;;6.33;5.00;;;;;;;;5078903;28;45367;-75
2022/04/06 06:44:08;;;;;;;;;4.33;4.33;;;;;;;;5078406;28;46968;-75
2022/04/06 06:46:33;;;;;;;;;6.00;6.00;;;;;;;;5082267;27;46375;-74
2022/04/06 06:49:02;;;;;;;;;6.00;5.00;;;;;;;;5098775;27;45377;-74
2022/04/06 06:51:29;;;;;;;;;6.33;5.00;;;;;;;;5100283;27;45294;-75
2022/04/06 06:53:54;;;;;;;;;5.50;5.50;;;;;;;;5098621;27;47185;-76
2022/04/06 06:56:19;;;;;;;;;5.00;4.33;;;;;;;;5099935;27;45369;-75
2022/04/06 06:58:44;;;;;;;;;4.33;4.33;;;;;;;;5098708;27;46056;-73
2022/04/06 07:01:09;;;;;;;;;5.67;5.67;;;;;;;;5100346;27;45307;-74
2022/04/06 07:03:34;;;;;;;;;7.67;6.67;;;;;;;;5097793;27;47383;-75
2022/04/06 07:06:00;;;;;;;;;6.00;6.00;;;;;;;;5099863;27;45266;-75
2022/04/06 07:08:25;;;;;;;;;5.00;3.33;;;;;;;;5099077;27;45372;-75
2022/04/06 07:10:50;;;;;;;;;8.00;5.33;;;;;;;;5098902;27;45411;-75
2022/04/06 07:13:16;;;;;;;;;3.67;3.67;;;;;;;;5098407;27;46734;-75
2022/04/06 07:15:42;;;;;;;;;7.00;6.33;;;;;;;;5108156;27;47505;-75
2022/04/06 07:18:11;;;;;;;;;3.67;3.67;;;;;;;;5120504;27;45225;-75
2022/04/06 07:20:37;;;;;;;;;4.00;3.00;;;;;;;;5118997;27;45409;-75
2022/04/06 07:23:03;;;;;;;;;6.00;4.33;;;;;;;;5118037;27;45814;-75
2022/04/06 07:25:28;;;;;;;;;5.00;4.33;;;;;;;;5117000;27;47402;-75
2022/04/06 07:27:53;;;;;;;;;5.33;4.00;;;;;;;;5117857;27;45442;-74
2022/04/06 07:30:18;;;;;;;;;3.00;3.00;;;;;;;;5119150;27;45930;-76
2022/04/06 07:32:44;;;;;;;;;6.00;4.67;;;;;;;;5117972;27;45975;-75
2022/04/06 07:35:09;;;;;;;;;4.67;3.33;;;;;;;;5119473;27;45542;-74
2022/04/06 07:37:45;;;;;;;;;3.33;3.33;;;;;;;;5118631;27;45322;-75
2022/04/06 07:40:11;;;;;;;;;4.67;4.33;;;;;;;;5120392;27;45355;-75
2022/04/06 07:42:37;;;;;;;;;6.00;5.00;;;;;;;;5118815;27;46492;-75
2022/04/06 07:45:03;;;;;;;;;3.67;3.67;;;;;;;;5120021;27;45529;-75
2022/04/06 07:47:30;;;;;;;;;4.00;4.00;;;;;;;;5120420;27;45340;-75
2022/04/06 07:49:55;;;;;;;;;5.33;5.33;;;;;;;;5119911;27;45320;-74
2022/04/06 07:52:22;;;;;;;;;6.00;4.00;;;;;;;;5118163;27;45585;-75
2022/04/06 07:54:47;;;;;;;;;5.67;4.00;;;;;;;;5119898;27;45363;-75
2022/04/06 07:57:12;;;;;;;;;5.67;3.00;;;;;;;;5118514;27;45327;-74
2022/04/06 07:59:37;;;;;;;;;3.67;3.67;;;;;;;;5120094;27;45496;-75
2022/04/06 08:02:03;;;;;;;;;5.33;4.33;;;;;;;;5119958;27;45365;-74
2022/04/06 08:04:28;;;;;;;;;6.00;4.33;;;;;;;;5119583;27;45360;-75
2022/04/06 08:06:53;;;;;;;;;5.67;5.00;;;;;;;;5119862;27;45238;-75
2022/04/06 08:09:18;;;;;;;;;7.00;5.67;;;;;;;;5120029;27;45275;-75
2022/04/06 08:11:43;;;;;;;;;4.00;4.00;;;;;;;;5113085;27;45769;-75
2022/04/06 08:14:09;;;;;;;;;2.33;2.33;;;;;;;;5078916;27;46060;-75
2022/04/06 08:16:34;;;;;;;;;5.00;5.00;;;;;;;;5085883;27;45286;-76
2022/04/06 08:18:59;;;;;;;;;6.00;5.33;;;;;;;;5081584;27;45437;-75
2022/04/06 08:21:24;;;;;;;;;3.33;3.33;;;;;;;;5081556;27;45505;-74
2022/04/06 08:23:49;;;;;;;;;7.00;5.00;;;;;;;;5082151;27;46448;-76
2022/04/06 08:26:15;;;;;;;;;6.00;6.00;;;;;;;;5080811;28;45373;-75
2022/04/06 08:28:40;;;;;;;;;7.00;7.00;;;;;;;;5082164;28;45180;-75
2022/04/06 08:31:06;;;;;;;;;7.67;6.67;;;;;;;;5081369;27;45421;-74
2022/04/06 08:33:31;;;;;;;;;6.00;5.00;;;;;;;;5081944;27;45864;-74
2022/04/06 08:35:56;;;;;;;;;5.33;4.00;;;;;;;;5081622;27;45133;-75
2022/04/06 08:38:22;;;;;;;;;7.00;6.33;;;;;;;;5080723;28;45223;-75
2022/04/06 08:40:48;;;;;;;;;4.67;4.67;;;;;;;;5080360;28;46099;-74
2022/04/06 08:43:15;;;;;;;;;5.33;5.00;;;;;;;;5081663;27;46144;-75
2022/04/06 08:45:40;;;;;;;;;10.67;6.67;;;;;;;;5086573;27;45521;-74
2022/04/06 08:48:06;;;;;;;;;5.67;5.00;;;;;;;;5099330;27;45381;-75
2022/04/06 08:50:32;;;;;;;;;3.67;3.67;;;;;;;;5101827;27;45437;-75
2022/04/06 08:52:58;;;;;;;;;7.00;7.00;;;;;;;;5101884;27;45513;-75
2022/04/06 08:55:24;;;;;;;;;2.00;2.00;;;;;;;;5100359;27;45423;-74
2022/04/06 08:57:49;;;;;;;;;5.00;5.00;;;;;;;;5096819;27;45795;-75
2022/04/06 09:00:18;;;;;;;;;6.67;5.33;;;;;;;;5080868;27;45703;-75
2022/04/06 09:02:44;;;;;;;;;8.67;7.00;;;;;;;;5080411;27;47081;-75
2022/04/06 09:05:10;;;;;;;;;7.00;7.00;;;;;;;;5079809;28;45401;-75
2022/04/06 09:07:38;;;;;;;;;8.00;7.33;;;;;;;;5081504;28;45410;-75
2022/04/06 09:10:03;;;;;;;;;7.00;5.67;;;;;;;;5081504;27;46259;-74
2022/04/06 09:12:29;;;;;;;;;6.67;6.00;;;;;;;;5081298;27;46150;-76
2022/04/06 09:15:04;;;;;;;;;7.67;6.00;;;;;;;;5087332;27;45350;-75
2022/04/06 09:17:29;;;;;;;;;5.67;5.67;;;;;;;;5121297;27;45306;-75
2022/04/06 09:19:57;;;;;;;;;7.00;7.00;;;;;;;;5120435;27;46227;-75
2022/04/06 09:22:22;;;;;;;;;7.00;7.00;;;;;;;;5121980;27;46655;-75
2022/04/06 09:24:55;;;;;;;;;8.00;7.00;;;;;;;;5122187;27;45235;-75
2022/04/06 09:27:20;;;;;;;;;8.00;7.00;;;;;;;;5118041;27;45680;-75
2022/04/06 09:29:49;;;;;;;;;6.67;6.67;;;;;;;;5119668;27;45282;-75
2022/04/06 09:32:14;;;;;;;;;8.67;8.00;;;;;;;;5117784;27;48383;-75
2022/04/06 09:34:39;;;;;;;;;8.00;7.00;;;;;;;;5118015;27;45464;-75
2022/04/06 09:37:21;;;;;;;;;7.00;6.33;;;;;;;;5119876;27;45513;-74
2022/04/06 09:39:46;;;;;;;;;6.33;6.33;;;;;;;;5119667;27;45612;-75
2022/04/06 09:42:18;;;;;;;;;8.33;7.33;;;;;;;;5119738;27;47614;-75
2022/04/06 09:47:41;;;;;;;;;4.00;4.00;;;;;;;;5121722;27;45379;-74
2022/04/06 09:50:09;;;;;;;;;7.67;6.67;;;;;;;;5120060;27;46280;-75
2022/04/06 09:52:36;;;;;;;;;8.00;7.33;;;;;;;;5119922;27;47428;-74
2022/04/06 09:55:02;;;;;;;;;9.33;9.33;;;;;;;;5120284;27;45337;-75
2022/04/06 09:57:28;;;;;;;;;9.00;9.00;;;;;;;;5121856;27;45283;-75
2022/04/06 09:59:53;;;;;;;;;10.00;9.33;;;;;;;;5121479;27;45316;-74
2022/04/06 10:02:18;;;;;;;;;11.67;10.00;;;;;;;;5120017;27;47635;-75
2022/04/06 10:04:46;;;;;;;;;9.33;9.00;;;;;;;;5121267;27;45226;-75
2022/04/06 10:07:12;;;;;;;;;8.00;8.00;;;;;;;;5121504;27;45275;-74
2022/04/06 10:09:39;;;;;;;;;10.67;10.33;;;;;;;;5121511;27;45502;-75
2022/04/06 10:12:04;;;;;;;;;7.00;7.00;;;;;;;;5121389;27;45429;-75
2022/04/06 10:14:30;;;;;;;;;8.00;8.00;;;;;;;;5121297;27;45300;-74
2022/04/06 10:16:56;;;;;;;;;11.00;10.67;;;;;;;;5099680;27;45385;-75
2022/04/06 10:19:23;;;;;;;;;5.67;5.33;;;;;;;;5100474;27;45618;-75
2022/04/06 10:21:54;;;;;;;;;9.67;8.00;;;;;;;;5099251;27;48493;-74
2022/04/06 10:24:22;;;;;;;;;6.33;6.33;;;;;;;;5100571;27;45341;-75
2022/04/06 10:27:13;;;;;;;;;7.00;7.00;;;;;;;;5100729;27;45291;-75
2022/04/06 10:29:57;;;;;;;;;9.67;8.00;;;;;;;;5085075;27;46458;-74
2022/04/06 10:32:34;;;;;;;;;7.00;6.67;;;;;;;;5098699;27;48360;-75
2022/04/06 10:35:18;;;;;;;;;8.00;8.00;;;;;;;;5098754;27;45723;-75
2022/04/06 10:37:56;;;;;;;;;7.67;7.67;;;;;;;;5097532;27;45448;-72
2022/04/06 10:40:21;;;;;;;;;12.33;9.33;;;;;;;;5093076;27;47000;-75
2022/04/06 10:42:46;;;;;;;;;10.33;7.33;;;;;;;;5100341;27;46220;-74
2022/04/06 10:45:30;;;;;;;;;9.00;9.00;;;;;;;;5100296;27;45315;-74
2022/04/06 10:48:14;;;;;;;;;11.67;10.00;;;;;;;;5090258;27;45376;-75
2022/04/06 10:50:40;;;;;;;;;6.33;6.33;;;;;;;;5078578;27;45543;-75
2022/04/06 10:53:29;;;;;;;;;7.00;5.67;;;;;;;;5078809;27;45630;-75
2022/04/06 10:55:57;;;;;;;;;8.00;6.00;;;;;;;;5082932;27;45281;-75
2022/04/06 10:58:24;;;;;;;;;7.00;6.00;;;;;;;;5080235;27;45342;-75
2022/04/06 11:01:09;;;;;;;;;4.00;4.00;;;;;;;;5078343;28;46561;-75
2022/04/06 11:03:37;;;;;;;;;6.00;5.00;;;;;;;;5077895;28;47142;-75
2022/04/06 11:06:02;;;;;;;;;5.67;5.67;;;;;;;;5081246;27;45445;-75
2022/04/06 11:11:36;;;;;;;;;7.67;7.67;;;;;;;;5079438;28;45377;-74
2022/04/06 11:14:02;;;;;;;;;6.67;6.67;;;;;;;;5089389;27;46260;-74
2022/04/06 11:16:54;;;;;;;;;5.33;5.33;;;;;;;;5111796;27;45276;-73
2022/04/06 11:19:19;;;;;;;;;7.33;7.33;;;;;;;;5115834;27;45292;-76
2022/04/06 11:21:51;;;;;;;;;8.00;6.00;;;;;;;;5084558;27;45435;-75
2022/04/06 11:24:21;;;;;;;;;8.00;6.00;;;;;;;;5080496;27;47122;-75
2022/04/06 11:26:47;;;;;;;;;7.33;7.33;;;;;;;;5080903;27;45364;-75
2022/04/06 11:29:12;;;;;;;;;7.67;7.67;;;;;;;;5078518;27;45263;-75
2022/04/06 11:31:55;;;;;;;;;4.67;4.00;;;;;;;;5090968;27;45453;-75
2022/04/06 11:34:30;;;;;;;;;4.67;4.67;;;;;;;;5097387;27;47170;-73
2022/04/06 11:36:58;;;;;;;;;9.67;9.00;;;;;;;;5098475;27;45283;-74
2022/04/06 11:39:24;;;;;;;;;6.00;6.00;;;;;;;;5098883;27;45306;-74
2022/04/06 11:41:50;;;;;;;;;8.00;8.00;;;;;;;;5084233;27;45400;-76
2022/04/06 11:44:19;;;;;;;;;7.67;4.67;;;;;;;;5099616;27;45431;-73
2022/04/06 11:46:45;;;;;;;;;6.67;6.67;;;;;;;;5099721;27;45341;-74
2022/04/06 11:49:10;;;;;;;;;7.00;7.00;;;;;;;;5100175;27;45405;-74
2022/04/06 11:51:36;;;;;;;;;8.00;7.00;;;;;;;;5102727;27;45447;-74
2022/04/06 11:54:01;;;;;;;;;5.33;5.00;;;;;;;;5102919;27;45272;-74
2022/04/06 11:56:26;;;;;;;;;7.00;7.00;;;;;;;;5101587;27;46001;-74
2022/04/06 11:58:52;;;;;;;;;5.67;5.33;;;;;;;;5101761;27;45373;-74
2022/04/06 12:01:27;;;;;;;;;6.33;6.33;;;;;;;;5102886;27;45415;-74
2022/04/06 12:03:53;;;;;;;;;9.33;7.67;;;;;;;;5102786;27;45219;-74
2022/04/06 12:06:18;;;;;;;;;8.67;6.67;;;;;;;;5101414;27;45327;-74
2022/04/06 12:08:45;;;;;;;;;6.00;5.00;;;;;;;;5101421;27;45356;-74
2022/04/06 12:11:10;;;;;;;;;7.33;7.33;;;;;;;;5102663;27;45307;-74
2022/04/06 12:13:36;;;;;;;;;7.00;7.00;;;;;;;;5101076;27;48223;-74
2022/04/06 12:16:02;;;;;;;;;8.00;7.67;;;;;;;;5102626;27;45483;-74
2022/04/06 12:18:28;;;;;;;;;10.00;8.67;;;;;;;;5085890;27;45414;-75
2022/04/06 12:20:54;;;;;;;;;9.33;7.33;;;;;;;;5091738;27;46169;-75
2022/04/06 12:23:20;;;;;;;;;8.33;8.33;;;;;;;;5102395;27;46023;-73
2022/04/06 12:25:46;;;;;;;;;13.00;11.00;;;;;;;;5102270;27;45352;-73
2022/04/06 12:28:12;;;;;;;;;8.00;7.33;;;;;;;;5102455;27;45356;-74
2022/04/06 12:30:54;;;;;;;;;8.33;8.33;;;;;;;;5100555;27;46166;-74
2022/04/06 12:33:39;;;;;;;;;9.00;9.00;;;;;;;;5101881;27;45959;-76
2022/04/06 12:36:09;;;;;;;;;8.00;7.33;;;;;;;;5097886;27;45520;-74
2022/04/06 12:38:35;;;;;;;;;9.00;9.00;;;;;;;;5100813;27;45321;-74
2022/04/06 12:41:04;;;;;;;;;10.00;10.00;;;;;;;;5100370;27;47201;-75
2022/04/06 12:43:29;;;;;;;;;9.00;9.00;;;;;;;;5100916;27;47363;-75
2022/04/06 12:45:55;;;;;;;;;7.00;7.00;;;;;;;;5093074;27;45247;-75
2022/04/06 12:48:20;;;;;;;;;8.00;7.33;;;;;;;;5081335;27;45334;-75
2022/04/06 12:50:45;;;;;;;;;9.00;7.00;;;;;;;;5081520;28;45272;-75
2022/04/06 12:53:12;;;;;;;;;8.33;8.00;;;;;;;;5081569;27;46266;-75
2022/04/06 12:55:38;;;;;;;;;7.00;7.00;;;;;;;;5081752;27;45220;-75
2022/04/06 12:58:20;;;;;;;;;9.00;7.67;;;;;;;;5081690;27;46000;-76
2022/04/06 13:00:56;;;;;;;;;10.00;9.33;;;;;;;;5096601;27;46342;-75
2022/04/06 13:03:21;;;;;;;;;8.00;7.33;;;;;;;;5087379;27;45430;-74
2022/04/06 13:05:46;;;;;;;;;11.00;10.00;;;;;;;;5080570;27;45377;-74
2022/04/06 13:08:11;;;;;;;;;6.67;6.67;;;;;;;;5083489;27;45205;-75
2022/04/06 13:10:38;;;;;;;;;6.33;6.33;;;;;;;;5086025;27;45463;-74
2022/04/06 13:13:04;;;;;;;;;9.33;8.00;;;;;;;;5087133;27;45527;-75
2022/04/06 13:15:30;;;;;;;;;7.67;7.67;;;;;;;;5090530;27;45478;-76
2022/04/06 13:17:55;;;;;;;;;9.00;8.00;;;;;;;;5089909;27;45302;-76
2022/04/06 13:20:21;;;;;;;;;9.00;7.67;;;;;;;;5099633;27;45348;-75
2022/04/06 13:22:48;;;;;;;;;6.00;6.00;;;;;;;;5087720;27;46308;-75
2022/04/06 13:25:14;;;;;;;;;9.00;9.00;;;;;;;;5089349;27;45511;-75
2022/04/06 13:27:41;;;;;;;;;10.00;8.67;;;;;;;;5081045;27;45345;-75
2022/04/06 13:30:07;;;;;;;;;7.00;7.00;;;;;;;;5078474;27;46247;-75
2022/04/06 13:32:32;;;;;;;;;7.67;7.67;;;;;;;;5080436;27;46027;-75
2022/04/06 13:35:00;;;;;;;;;7.67;7.33;;;;;;;;5080437;28;45293;-75
2022/04/06 13:37:25;;;;;;;;;6.33;6.33;;;;;;;;5090829;27;45368;-76
2022/04/06 13:39:50;;;;;;;;;8.00;7.00;;;;;;;;5100817;27;45400;-76
2022/04/06 13:42:16;;;;;;;;;9.00;8.00;;;;;;;;5101040;27;45507;-75
2022/04/06 13:44:41;;;;;;;;;9.00;7.33;;;;;;;;5100746;27;45466;-76
2022/04/06 13:47:06;;;;;;;;;7.67;6.00;;;;;;;;5098665;27;45343;-74
2022/04/06 13:49:32;;;;;;;;;8.00;8.00;;;;;;;;5098027;27;45594;-75
2022/04/06 13:52:00;;;;;;;;;7.67;7.67;;;;;;;;5101046;27;46288;-74
2022/04/06 13:54:25;;;;;;;;;7.67;7.67;;;;;;;;5101098;27;45309;-75
2022/04/06 13:56:51;;;;;;;;;7.00;7.00;;;;;;;;5101133;27;45315;-75
2022/04/06 13:59:16;;;;;;;;;5.67;5.67;;;;;;;;5100956;27;45507;-74
2022/04/06 14:01:42;;;;;;;;;10.67;9.00;;;;;;;;5100964;27;45313;-75
2022/04/06 14:04:08;;;;;;;;;6.00;4.33;;;;;;;;5099467;27;45377;-74
2022/04/06 14:06:34;;;;;;;;;6.00;6.00;;;;;;;;5100847;27;45282;-75
2022/04/06 14:08:59;;;;;;;;;7.67;6.67;;;;;;;;5100788;27;45498;-75
2022/04/06 14:11:24;;;;;;;;;8.67;8.33;;;;;;;;5100826;27;45258;-75
2022/04/06 14:13:50;;;;;;;;;6.33;6.33;;;;;;;;5100480;27;45356;-75
2022/04/06 14:16:16;;;;;;;;;10.00;9.00;;;;;;;;5115220;27;45455;-75
2022/04/06 14:18:42;;;;;;;;;9.67;9.00;;;;;;;;5121107;27;45440;-77
2022/04/06 14:21:07;;;;;;;;;7.00;6.00;;;;;;;;5098238;27;46127;-74
2022/04/06 14:23:37;;;;;;;;;6.33;6.33;;;;;;;;5100502;27;45324;-75
2022/04/06 14:26:02;;;;;;;;;4.00;3.00;;;;;;;;5100760;27;45281;-75
2022/04/06 14:28:28;;;;;;;;;7.00;6.00;;;;;;;;5100407;27;45491;-75
2022/04/06 14:30:54;;;;;;;;;8.00;6.67;;;;;;;;5098506;27;47220;-75
2022/04/06 14:33:20;;;;;;;;;5.33;5.33;;;;;;;;5100394;27;45450;-75
2022/04/06 14:35:46;;;;;;;;;6.00;6.00;;;;;;;;5099316;27;45486;-74
2022/04/06 14:38:12;;;;;;;;;5.00;5.00;;;;;;;;5100190;27;45420;-75
2022/04/06 14:40:38;;;;;;;;;7.00;7.00;;;;;;;;5100431;27;45330;-74
2022/04/06 14:43:03;;;;;;;;;5.00;5.00;;;;;;;;5100166;27;45343;-77
2022/04/06 14:45:28;;;;;;;;;4.00;4.00;;;;;;;;5099066;27;45433;-75
2022/04/06 14:47:53;;;;;;;;;7.33;5.00;;;;;;;;5100133;27;45496;-74
2022/04/06 14:50:20;;;;;;;;;5.33;5.33;;;;;;;;5100010;27;45477;-74